Aviation Digital Data Service (ADDS)

Output produced by METARs form (0215 UTC 03 September 2014)
found at http://aviationweather.gov/adds/metars/
 
KHPN 022340Z 0300/0324 20005KT P6SM SCT040 BKN250 
     FM030200 25006KT P6SM VCSH BKN040 BKN150 
     TEMPO 0302/0303 2SM TSRA BKN040CB 
     FM030500 28008KT P6SM SCT040 SCT120 
     FM031000 32009KT P6SM SCT250 AMD NOT SKED